Time;durP1;ratioP1;P1;durP2;ratioP2;P2;SDS_P1;SDS_P2;PMS_P1;PMS_P2;Temp;Humidity;BMP_temperature;BMP_pressure;BME280_temperature;BME280_humidity;BME280_pressure;Samples;Min_cycle;Max_cycle;Signal;HPM_P1;HPM_P2
2023/05/06 00:01:03;;;;;;;;;;;15.80;58.70;;;11.63;100.00;95610.38;5027850;28;19916;-48
2023/05/06 00:03:29;;;;;;;;;;;15.80;58.80;;;11.64;100.00;95611.94;5034757;28;19916;-47
2023/05/06 00:05:55;;;;;;;;;;;15.80;58.90;;;11.69;100.00;95619.13;5033513;28;19915;-51
2023/05/06 00:08:21;;;;;;;;;;;15.80;58.90;;;11.71;100.00;95617.00;5033935;28;19935;-49
2023/05/06 00:10:47;;;;;;;;;;;15.80;58.90;;;11.70;100.00;95621.53;5033401;28;20370;-50
2023/05/06 00:13:13;;;;;;;;;;;15.80;59.00;;;11.73;100.00;95618.34;5034934;28;20020;-48
2023/05/06 00:15:39;;;;;;;;;;;15.90;59.10;;;11.70;100.00;95615.41;5034147;28;19989;-48
2023/05/06 00:18:05;;;;;;;;;;;15.90;59.10;;;11.65;100.00;95600.19;5032848;28;19913;-48
2023/05/06 00:20:31;;;;;;;;;;;15.90;59.10;;;11.62;100.00;95605.28;5034278;28;20450;-48
2023/05/06 00:22:58;;;;;;;;;;;15.90;59.00;;;11.62;100.00;95610.63;5032969;28;19908;-48
2023/05/06 00:25:24;;;;;;;;;;;15.90;59.10;;;11.60;100.00;95604.78;5034174;28;19932;-47
2023/05/06 00:27:50;;;;;;;;;;;15.90;59.10;;;11.64;100.00;95605.81;5033945;28;20005;-48
2023/05/06 00:30:16;;;;;;;;;;;15.90;59.20;;;11.64;100.00;95600.50;5033075;28;19913;-48
2023/05/06 00:32:42;;;;;;;;;;;15.90;59.30;;;11.69;100.00;95587.13;5034161;28;19924;-49
2023/05/06 00:35:08;;;;;;;;;;;15.90;59.30;;;11.69;100.00;95593.28;5032265;28;19912;-51
2023/05/06 00:37:34;;;;;;;;;;;15.90;59.30;;;11.68;100.00;95583.66;5028705;28;19912;-50
2023/05/06 00:40:00;;;;;;;;;;;15.90;59.30;;;11.71;100.00;95587.66;5033918;28;19909;-51
2023/05/06 00:42:26;;;;;;;;;;;15.90;59.30;;;11.72;100.00;95595.41;5032643;28;19946;-47
2023/05/06 00:44:51;;;;;;;;;;;16.00;59.40;;;11.74;100.00;95598.56;5033680;28;20268;-50
2023/05/06 00:47:19;;;;;;;;;;;16.00;59.50;;;11.75;100.00;95596.69;5032108;28;19913;-51
2023/05/06 00:49:46;;;;;;;;;;;16.00;59.50;;;11.77;100.00;95594.56;5002878;28;19909;-52
2023/05/06 00:52:13;;;;;;;;;;;16.00;59.50;;;11.80;100.00;95602.84;4996664;28;20457;-49
2023/05/06 00:54:40;;;;;;;;;;;16.10;59.60;;;11.84;100.00;95604.97;4999877;28;19924;-48
2023/05/06 00:57:06;;;;;;;;;;;16.10;59.60;;;11.82;100.00;95603.38;5010133;28;19917;-48
2023/05/06 00:59:32;;;;;;;;;;;16.10;59.60;;;11.86;100.00;95598.31;5009482;28;19996;-48
2023/05/06 01:01:59;;;;;;;;;;;16.20;59.60;;;11.88;100.00;95592.72;5033701;28;20050;-48
2023/05/06 01:04:27;;;;;;;;;;;16.20;59.60;;;11.86;100.00;95595.66;5032450;28;19909;-48
2023/05/06 01:07:14;;;;;;;;;;;16.20;59.50;;;11.91;100.00;95589.47;4996555;28;20047;-50
2023/05/06 01:10:09;;;;;;;;;;;16.20;59.50;;;11.90;100.00;95586.00;5012833;28;20009;-51
2023/05/06 01:13:05;;;;;;;;;;;16.20;59.50;;;11.92;100.00;95583.88;5005327;28;19976;-47
2023/05/06 01:15:46;;;;;;;;;;;16.20;59.50;;;11.83;100.00;95582.81;5015893;28;19967;-50
2023/05/06 01:18:22;;;;;;;;;;;16.20;59.60;;;11.85;100.00;95585.25;5026084;28;19909;-50
2023/05/06 01:20:51;;;;;;;;;;;16.10;59.50;;;11.81;100.00;95591.09;5033041;28;19913;-47
2023/05/06 01:23:18;;;;;;;;;;;16.10;59.60;;;11.79;100.00;95587.09;5032066;28;20355;-47
2023/05/06 01:25:45;;;;;;;;;;;16.10;59.70;;;11.77;100.00;95590.03;5032734;28;21112;-48
2023/05/06 01:28:12;;;;;;;;;;;16.00;59.70;;;11.74;100.00;95585.25;5033247;28;19909;-48
2023/05/06 01:31:07;;;;;;;;;;;16.00;59.80;;;11.71;100.00;95585.78;5031651;28;20011;-49
2023/05/06 01:34:12;;;;;;;;;;;16.00;59.80;;;11.67;100.00;95587.41;5032855;28;19974;-50
2023/05/06 01:36:57;;;;;;;;;;;16.00;59.80;;;11.68;100.00;95601.53;5004046;28;19999;-48
2023/05/06 01:39:30;;;;;;;;;;;16.00;59.90;;;11.69;100.00;95597.78;5015394;28;20011;-52
2023/05/06 01:41:59;;;;;;;;;;;16.00;60.70;;;11.72;100.00;95590.06;5006278;28;19931;-49
2023/05/06 01:44:32;;;;;;;;;;;16.00;60.00;;;11.76;100.00;95582.31;5032901;28;19915;-50
2023/05/06 01:46:59;;;;;;;;;;;16.00;60.00;;;11.76;100.00;95582.31;5031375;28;19982;-52
2023/05/06 01:49:27;;;;;;;;;;;16.00;59.90;;;11.73;100.00;95580.19;5005025;28;19909;-53
2023/05/06 01:51:54;;;;;;;;;;;16.00;59.90;;;11.71;100.00;95584.97;5016578;28;19916;-51
2023/05/06 01:54:19;;;;;;;;;;;16.00;60.00;;;11.74;100.00;95595.13;5002926;28;19917;-50
2023/05/06 01:56:45;;;;;;;;;;;16.00;60.00;;;11.71;100.00;95593.78;4998229;28;19916;-52
2023/05/06 01:59:11;;;;;;;;;;;16.00;60.10;;;11.79;100.00;95600.44;5025709;28;20003;-48
2023/05/06 02:01:37;;;;;;;;;;;16.00;60.20;;;11.82;100.00;95595.38;5032243;28;19978;-49
2023/05/06 02:04:03;;;;;;;;;;;16.00;60.20;;;11.86;100.00;95592.19;5032028;28;19916;-48
2023/05/06 02:06:28;;;;;;;;;;;16.10;60.30;;;11.88;100.00;95590.06;5031092;28;19915;-51
2023/05/06 02:08:54;;;;;;;;;;;16.10;60.30;;;11.95;100.00;95595.91;5032218;28;20005;-52
2023/05/06 02:11:20;;;;;;;;;;;16.10;60.30;;;11.98;100.00;95592.69;5031116;28;19970;-50
2023/05/06 02:13:46;;;;;;;;;;;16.20;60.40;;;12.00;100.00;95588.66;5032166;28;20003;-52
2023/05/06 02:16:11;;;;;;;;;;;16.30;60.40;;;12.05;100.00;95585.16;5032139;28;19915;-47
2023/05/06 02:18:37;;;;;;;;;;;16.30;60.40;;;12.08;100.00;95579.28;5030740;28;20275;-47
2023/05/06 02:21:03;;;;;;;;;;;16.30;60.40;;;12.12;100.00;95582.19;5032006;28;19908;-49
2023/05/06 02:23:29;;;;;;;;;;;16.40;60.40;;;12.09;100.00;95588.88;5030816;28;20281;-50
2023/05/06 02:25:56;;;;;;;;;;;16.40;60.40;;;12.13;100.00;95587.28;5031543;28;20327;-48
2023/05/06 02:28:23;;;;;;;;;;;16.40;60.30;;;12.13;100.00;95589.94;5031898;28;19909;-50
2023/05/06 02:30:53;;;;;;;;;;;16.40;60.40;;;12.13;100.00;95581.94;5030724;28;19915;-48
2023/05/06 02:33:19;;;;;;;;;;;16.50;60.40;;;12.18;100.00;95586.44;5031733;28;19912;-50
2023/05/06 02:35:45;;;;;;;;;;;16.50;60.40;;;12.22;100.00;95585.63;5030646;28;19908;-51
2023/05/06 02:38:10;;;;;;;;;;;16.50;60.40;;;12.25;100.00;95594.94;5031865;28;19916;-48
2023/05/06 02:40:36;;;;;;;;;;;16.50;60.40;;;12.27;100.00;95580.25;5013403;28;19912;-49
2023/05/06 02:43:02;;;;;;;;;;;16.60;60.50;;;12.31;100.00;95583.16;5026841;28;19915;-49
2023/05/06 02:45:28;;;;;;;;;;;16.60;60.50;;;12.32;100.00;95581.31;5031209;28;19913;-49
2023/05/06 02:47:54;;;;;;;;;;;16.60;60.50;;;12.32;100.00;95574.09;5028893;28;19913;-47
2023/05/06 02:50:20;;;;;;;;;;;16.60;60.40;;;12.31;100.00;95577.81;5011646;28;19916;-48
2023/05/06 02:52:45;;;;;;;;;;;16.70;60.50;;;12.30;100.00;95564.75;5012041;28;19913;-49
2023/05/06 02:55:11;;;;;;;;;;;16.70;60.40;;;12.27;100.00;95566.91;5005123;28;20300;-48
2023/05/06 02:57:37;;;;;;;;;;;16.70;60.40;;;12.23;100.00;95560.53;5026332;28;19913;-50
2023/05/06 03:00:05;;;;;;;;;;;16.60;60.40;;;12.24;100.00;95562.09;5030547;28;19915;-48
2023/05/06 03:02:30;;;;;;;;;;;16.60;60.40;;;12.19;100.00;95564.81;5031329;28;19996;-47
2023/05/06 03:04:56;;;;;;;;;;;16.60;60.50;;;12.24;100.00;95567.44;5029675;28;20015;-51
2023/05/06 03:07:22;;;;;;;;;;;16.50;60.50;;;12.23;100.00;95571.19;5031295;28;19909;-48
2023/05/06 03:09:48;;;;;;;;;;;16.50;60.50;;;12.18;100.00;95567.75;5031516;28;19948;-48
2023/05/06 03:12:14;;;;;;;;;;;16.50;60.50;;;12.20;100.00;95571.75;5019094;28;19921;-48
2023/05/06 03:14:39;;;;;;;;;;;16.50;60.60;;;12.21;100.00;95564.53;5031108;28;20313;-50
2023/05/06 03:17:05;;;;;;;;;;;16.50;60.60;;;12.23;100.00;95571.19;5029623;28;19913;-49
2023/05/06 03:19:31;;;;;;;;;;;16.50;60.60;;;12.21;100.00;95565.34;5031181;28;19908;-47
2023/05/06 03:21:56;;;;;;;;;;;16.50;60.60;;;12.24;100.00;95561.31;5013452;28;19908;-48
2023/05/06 03:24:22;;;;;;;;;;;16.60;60.70;;;12.25;100.00;95566.41;5018414;28;20287;-49
2023/05/06 03:26:48;;;;;;;;;;;16.60;60.70;;;12.25;100.00;95566.41;5030428;28;19962;-48
2023/05/06 03:29:13;;;;;;;;;;;16.60;60.70;;;12.27;100.00;95566.91;5029059;28;19909;-47
2023/05/06 03:31:39;;;;;;;;;;;16.60;60.70;;;12.28;100.00;95570.38;5030637;28;19909;-50
2023/05/06 03:34:05;;;;;;;;;;;16.60;60.70;;;12.29;100.00;95563.19;5030356;28;20273;-47
2023/05/06 03:36:32;;;;;;;;;;;16.60;60.70;;;12.31;100.00;95564.47;5029261;28;19909;-48
2023/05/06 03:38:57;;;;;;;;;;;16.60;60.70;;;12.33;100.00;95566.88;5031110;28;19961;-49
2023/05/06 03:41:24;;;;;;;;;;;16.60;60.70;;;12.31;100.00;95561.00;5029827;28;20332;-47
2023/05/06 03:43:50;;;;;;;;;;;16.70;60.80;;;12.32;100.00;95567.97;5030897;28;19951;-48
2023/05/06 03:46:15;;;;;;;;;;;16.70;60.70;;;12.34;100.00;95560.47;5030714;28;20022;-49
2023/05/06 03:48:41;;;;;;;;;;;16.70;60.80;;;12.33;100.00;95548.97;5030280;28;19913;-51
2023/05/06 03:51:07;;;;;;;;;;;16.70;60.80;;;12.32;100.00;95567.97;5031278;28;19916;-50
2023/05/06 03:53:33;;;;;;;;;;;16.60;60.60;;;12.29;100.00;95566.63;5011865;28;19966;-49
2023/05/06 03:56:00;;;;;;;;;;;16.60;60.70;;;12.31;100.00;95569.81;5030149;28;19924;-52
2023/05/06 03:58:26;;;;;;;;;;;16.60;60.80;;;12.25;100.00;95566.41;5030938;28;19916;-48
2023/05/06 04:00:52;;;;;;;;;;;16.60;60.90;;;12.26;100.00;95564.53;5029563;28;19913;-51
2023/05/06 04:03:18;;;;;;;;;;;16.60;60.90;;;12.27;100.00;95571.44;5030312;28;19963;-49
2023/05/06 04:05:45;;;;;;;;;;;16.60;60.90;;;12.25;100.00;95566.41;5028933;28;19988;-50
2023/05/06 04:08:11;;;;;;;;;;;16.60;60.90;;;12.19;100.00;95562.16;5030910;28;19971;-51
2023/05/06 04:10:40;;;;;;;;;;;16.60;60.90;;;12.20;100.00;95561.06;5030472;28;19940;-48
2023/05/06 04:13:06;;;;;;;;;;;16.50;60.80;;;12.25;100.00;95560.22;5028242;28;19916;-51
2023/05/06 04:15:33;;;;;;;;;;;16.60;61.00;;;12.22;100.00;95556.25;5030381;28;19915;-51
2023/05/06 04:17:59;;;;;;;;;;;16.60;61.00;;;12.24;100.00;95572.00;5029637;28;19936;-51
2023/05/06 04:20:25;;;;;;;;;;;16.60;61.00;;;12.23;100.00;95567.75;5030417;28;20741;-50
2023/05/06 04:22:51;;;;;;;;;;;16.60;61.10;;;12.26;100.00;95569.88;5012206;28;19919;-53
2023/05/06 04:25:20;;;;;;;;;;;16.60;61.10;;;12.27;100.00;95574.91;5002019;28;19909;-47
2023/05/06 04:27:46;;;;;;;;;;;16.60;61.10;;;12.29;100.00;95573.84;5010906;28;20368;-51
2023/05/06 04:30:12;;;;;;;;;;;16.60;61.10;;;12.27;100.00;95582.94;5022562;28;19908;-47
2023/05/06 04:32:38;;;;;;;;;;;16.70;61.20;;;12.32;100.00;95582.13;5030476;28;19970;-48
2023/05/06 04:35:06;;;;;;;;;;;16.70;61.20;;;12.35;100.00;95580.78;5028082;28;26668;-47
2023/05/06 04:37:32;;;;;;;;;;;16.70;61.20;;;12.36;100.00;95575.16;5030434;28;19964;-49
2023/05/06 04:39:58;;;;;;;;;;;16.80;61.20;;;12.38;100.00;95580.19;5031062;28;19912;-48
2023/05/06 04:42:23;;;;;;;;;;;16.80;61.10;;;12.39;100.00;95579.94;5032798;28;19981;-51
2023/05/06 04:44:49;;;;;;;;;;;16.80;61.00;;;12.37;100.00;95582.06;5033359;28;19991;-47
2023/05/06 04:47:15;;;;;;;;;;;16.90;61.00;;;12.42;100.00;95589.28;5032940;28;19959;-47
2023/05/06 04:49:41;;;;;;;;;;;16.90;61.00;;;12.43;100.00;95580.19;5033800;28;19977;-48
2023/05/06 04:52:07;;;;;;;;;;;16.90;60.90;;;12.42;100.00;95587.41;5011721;28;20024;-47
2023/05/06 04:54:33;;;;;;;;;;;16.90;60.90;;;12.45;100.00;95584.19;5029214;28;20015;-47
2023/05/06 04:56:58;;;;;;;;;;;16.90;60.90;;;12.43;100.00;95585.53;5032865;28;20390;-51
2023/05/06 04:59:24;;;;;;;;;;;17.00;60.90;;;12.47;100.00;95590.06;5032138;28;19909;-49
2023/05/06 05:01:50;;;;;;;;;;;17.00;60.90;;;12.54;100.00;95588.94;5033090;28;19912;-49
2023/05/06 05:04:16;;;;;;;;;;;17.00;60.90;;;12.54;100.00;95583.59;5033414;28;19909;-50
2023/05/06 05:06:41;;;;;;;;;;;17.10;61.00;;;12.50;100.00;95576.16;5032305;28;20405;-48
2023/05/06 05:09:09;;;;;;;;;;;17.10;60.90;;;12.60;100.00;95577.94;5033555;28;19913;-49
2023/05/06 05:11:37;;;;;;;;;;;17.10;60.90;;;12.64;100.00;95584.31;5032410;28;19909;-48
2023/05/06 05:14:03;;;;;;;;;;;17.20;60.90;;;12.66;100.00;95590.22;5033487;28;20118;-49
2023/05/06 05:16:29;;;;;;;;;;;17.20;60.90;;;12.65;100.00;95588.59;5032823;28;20439;-48
2023/05/06 05:18:55;;;;;;;;;;;17.20;60.80;;;12.59;100.00;95588.91;5003742;28;19909;-49
2023/05/06 05:21:21;;;;;;;;;;;17.20;60.90;;;12.63;100.00;95595.28;5013713;28;20313;-49
2023/05/06 05:23:46;;;;;;;;;;;17.20;60.80;;;12.64;100.00;95587.00;5004434;28;19909;-47
2023/05/06 05:26:12;;;;;;;;;;;17.20;60.80;;;12.68;100.00;95596.06;5032400;28;19974;-48
2023/05/06 05:28:38;;;;;;;;;;;17.20;60.70;;;12.82;100.00;95593.56;5029159;28;19999;-48
2023/05/06 05:31:04;;;;;;;;;;;17.40;60.70;;;12.99;100.00;95597.72;5028032;28;19967;-48
2023/05/06 05:33:30;;;;;;;;;;;17.60;60.60;;;13.10;100.00;95599.22;5013264;28;20020;-50
2023/05/06 05:35:57;;;;;;;;;;;17.70;60.60;;;13.17;100.00;95602.41;5016055;28;19991;-49
2023/05/06 05:38:23;;;;;;;;;;;17.80;60.60;;;13.31;100.00;95602.56;5032972;28;20280;-47
2023/05/06 05:40:49;;;;;;;;;;;17.90;60.50;;;13.46;100.00;95601.66;5031194;28;19909;-49
2023/05/06 05:43:15;;;;;;;;;;;18.10;60.50;;;13.53;100.00;95604.78;5031988;28;19974;-48
2023/05/06 05:45:41;;;;;;;;;;;18.30;60.40;;;13.68;100.00;95615.34;5031501;28;20345;-48
2023/05/06 05:48:06;;;;;;;;;;;18.50;60.40;;;13.84;100.00;95608.75;5031597;28;19909;-49
2023/05/06 05:50:32;;;;;;;;;;;18.70;60.30;;;14.05;100.00;95603.16;5032760;28;20267;-48
2023/05/06 05:52:58;;;;;;;;;;;18.80;60.20;;;14.11;100.00;95612.75;5030665;28;20336;-48
2023/05/06 05:55:23;;;;;;;;;;;19.00;60.00;;;14.24;100.00;95605.91;5031732;28;19927;-49
2023/05/06 05:57:49;;;;;;;;;;;19.20;59.90;;;14.54;100.00;95602.84;5031275;28;19909;-50
2023/05/06 06:00:16;;;;;;;;;;;19.50;59.60;;;14.91;100.00;95611.97;5030215;28;19912;-50
2023/05/06 06:02:41;;;;;;;;;;;19.80;59.40;;;15.24;96.73;95615.50;5031230;28;19923;-52
2023/05/06 06:05:07;;;;;;;;;;;20.30;59.30;;;15.49;91.07;95616.16;5030828;28;19913;-49
2023/05/06 06:07:33;;;;;;;;;;;20.60;59.10;;;15.70;87.70;95606.69;5017449;28;19909;-52
2023/05/06 06:09:59;;;;;;;;;;;21.00;58.70;;;15.98;87.31;95605.91;5030289;28;19908;-48
2023/05/06 06:12:25;;;;;;;;;;;21.30;58.30;;;16.14;85.58;95596.50;5029711;28;19913;-50
2023/05/06 06:14:50;;;;;;;;;;;21.40;58.00;;;16.30;84.14;95592.38;5031630;28;20364;-50
2023/05/06 06:17:16;;;;;;;;;;;21.60;57.70;;;16.52;84.30;95588.19;5031309;28;20302;-50
2023/05/06 06:19:45;;;;;;;;;;;21.70;57.40;;;16.66;81.71;95592.41;5032474;28;19931;-54
2023/05/06 06:22:12;;;;;;;;;;;22.00;57.10;;;16.70;81.83;95592.59;5032277;28;19913;-50
2023/05/06 06:24:37;;;;;;;;;;;22.30;56.80;;;17.02;79.72;95594.34;5010447;28;20401;-50
2023/05/06 06:27:03;;;;;;;;;;;22.60;56.40;;;17.23;79.23;95596.53;5032041;28;19909;-52
2023/05/06 06:29:29;;;;;;;;;;;23.00;56.10;;;17.29;77.16;95600.69;5030815;28;19909;-49
2023/05/06 06:31:55;;;;;;;;;;;23.30;55.70;;;17.49;75.82;95608.28;5029242;28;19916;-48
2023/05/06 06:34:21;;;;;;;;;;;23.50;55.30;;;17.51;75.84;95610.66;5030238;28;20019;-48
2023/05/06 06:36:46;;;;;;;;;;;23.40;55.00;;;17.46;74.98;95608.09;5029881;28;20423;-48
2023/05/06 06:39:13;;;;;;;;;;;23.40;54.70;;;17.47;75.31;95609.69;5031953;28;20031;-48
2023/05/06 06:41:39;;;;;;;;;;;23.40;54.50;;;17.74;75.54;95614.91;5030706;28;19931;-48
2023/05/06 06:44:05;;;;;;;;;;;23.60;54.50;;;18.04;74.94;95609.84;5031586;28;20409;-49
2023/05/06 06:46:30;;;;;;;;;;;23.70;54.40;;;18.01;72.04;95605.84;5013449;28;19909;-51
2023/05/06 06:48:56;;;;;;;;;;;23.90;54.30;;;18.06;73.60;95604.94;5030802;28;19912;-48
2023/05/06 06:51:22;;;;;;;;;;;23.90;54.10;;;18.07;72.33;95605.72;5031641;28;20279;-51
2023/05/06 06:53:50;;;;;;;;;;;23.90;53.90;;;18.13;72.64;95601.78;5030107;28;19913;-48
2023/05/06 06:56:16;;;;;;;;;;;23.90;53.70;;;18.12;72.81;95601.00;5030636;28;19913;-49
2023/05/06 06:58:42;;;;;;;;;;;23.80;53.60;;;18.35;71.31;95607.09;5030301;28;19995;-49
2023/05/06 07:01:09;;;;;;;;;;;24.00;53.40;;;18.49;70.76;95607.78;5031336;28;20315;-48
2023/05/06 07:03:35;;;;;;;;;;;24.20;53.20;;;18.63;70.61;95599.53;5030215;28;20686;-48
2023/05/06 07:06:01;;;;;;;;;;;24.40;53.10;;;18.61;70.10;95607.16;5030287;28;19909;-48
2023/05/06 07:08:27;;;;;;;;;;;24.50;52.90;;;18.75;69.09;95609.75;5031392;28;19913;-48
2023/05/06 07:10:54;;;;;;;;;;;24.70;52.60;;;18.84;69.21;95604.38;5030327;28;20637;-48
2023/05/06 07:13:22;;;;;;;;;;;24.80;52.40;;;19.03;68.35;95606.75;5031084;28;19913;-48
2023/05/06 07:15:48;;;;;;;;;;;24.90;52.10;;;18.96;68.57;95599.13;5030674;28;19931;-48
2023/05/06 07:18:14;;;;;;;;;;;25.00;52.00;;;19.07;68.63;95605.78;5030460;28;20004;-48
2023/05/06 07:20:40;;;;;;;;;;;25.00;51.80;;;19.32;67.89;95608.81;5013252;28;20327;-50
2023/05/06 07:23:05;;;;;;;;;;;25.10;51.70;;;19.71;66.42;95605.13;5029679;28;20007;-48
2023/05/06 07:25:31;;;;;;;;;;;25.50;51.50;;;19.86;64.93;95614.59;5030566;28;19909;-48
2023/05/06 07:27:57;;;;;;;;;;;25.70;51.30;;;19.94;64.35;95618.41;5031105;28;20369;-49
2023/05/06 07:30:23;;;;;;;;;;;26.00;50.90;;;19.99;62.97;95618.22;5000995;28;19909;-49
2023/05/06 07:32:49;;;;;;;;;;;26.20;50.70;;;19.90;63.47;95609.34;5030506;28;19913;-48
2023/05/06 07:35:15;;;;;;;;;;;26.30;50.40;;;19.78;63.80;95615.44;5025716;28;19916;-49
2023/05/06 07:37:40;;;;;;;;;;;26.30;49.80;;;19.82;63.53;95610.97;5030432;28;19920;-48
2023/05/06 07:40:07;;;;;;;;;;;26.20;49.50;;;20.06;62.77;95622.00;5030778;28;19927;-49
2023/05/06 07:42:33;;;;;;;;;;;26.20;49.50;;;20.27;64.08;95616.66;5029829;28;20317;-49
2023/05/06 07:44:59;;;;;;;;;;;26.40;49.40;;;20.48;63.08;95615.94;5030512;28;19912;-49
2023/05/06 07:47:29;;;;;;;;;;;26.80;49.40;;;20.78;62.39;95614.03;5029768;28;19962;-49
2023/05/06 07:49:55;;;;;;;;;;;26.90;49.10;;;20.92;62.51;95611.84;5030929;28;19931;-49
2023/05/06 07:52:22;;;;;;;;;;;27.00;49.20;;;20.74;62.06;95611.16;5030620;28;19917;-48
2023/05/06 07:54:47;;;;;;;;;;;26.80;49.00;;;20.46;62.67;95620.88;5028880;28;19921;-48
2023/05/06 07:57:14;;;;;;;;;;;26.60;48.90;;;20.43;62.73;95619.63;5030562;28;20374;-49
2023/05/06 07:59:42;;;;;;;;;;;26.50;48.90;;;20.68;62.38;95609.00;5012245;28;19909;-51
2023/05/06 08:02:08;;;;;;;;;;;26.60;48.60;;;20.65;62.19;95615.06;5030886;28;20367;-49
2023/05/06 08:04:33;;;;;;;;;;;26.90;48.50;;;20.73;62.21;95620.41;5030021;28;19909;-51
2023/05/06 08:06:59;;;;;;;;;;;27.30;48.30;;;21.21;60.35;95618.31;5029874;28;19916;-49
2023/05/06 08:09:25;;;;;;;;;;;27.70;48.20;;;21.66;58.16;95618.41;5030751;28;19931;-52
2023/05/06 08:11:52;;;;;;;;;;;28.20;48.10;;;22.02;56.86;95625.03;5029488;28;19913;-48
2023/05/06 08:14:17;;;;;;;;;;;28.70;47.70;;;22.31;56.08;95632.25;5013234;28;19913;-48
2023/05/06 08:16:43;;;;;;;;;;;29.10;47.10;;;22.85;54.48;95623.06;5033111;28;19916;-54
2023/05/06 08:19:09;;;;;;;;;;;29.50;46.80;;;23.11;52.25;95621.91;5026688;28;19909;-52
2023/05/06 08:21:35;;;;;;;;;;;30.00;46.40;;;22.49;54.42;95615.72;5034443;28;19913;-52
2023/05/06 08:24:01;;;;;;;;;;;30.40;45.80;;;22.89;53.57;95612.31;5033441;28;19974;-47
2023/05/06 08:26:26;;;;;;;;;;;30.60;45.40;;;23.46;51.26;95622.13;5033723;28;19924;-46
2023/05/06 08:28:52;;;;;;;;;;;31.00;45.20;;;23.29;50.41;95623.22;5033672;28;19920;-51
2023/05/06 08:31:18;;;;;;;;;;;31.30;44.70;;;23.52;50.36;95626.94;5034501;28;19912;-46
2023/05/06 08:33:43;;;;;;;;;;;31.50;44.20;;;23.72;49.66;95627.13;5034280;28;20264;-50
2023/05/06 08:36:09;;;;;;;;;;;31.80;44.00;;;23.96;48.90;95621.53;5032611;28;19909;-48
2023/05/06 08:38:35;;;;;;;;;;;32.10;43.70;;;24.49;47.84;95626.75;5033886;28;20779;-49
2023/05/06 08:41:08;;;;;;;;;;;32.40;43.50;;;24.98;48.13;95623.59;5033200;28;20770;-48
2023/05/06 08:43:42;;;;;;;;;;;32.50;43.30;;;25.22;46.48;95619.06;5033915;28;19932;-49
2023/05/06 08:46:09;;;;;;;;;;;32.60;43.10;;;25.80;44.52;95614.38;5033701;28;19913;-49
2023/05/06 08:48:36;;;;;;;;;;;32.90;42.60;;;25.92;44.19;95609.94;5002102;28;19909;-49
2023/05/06 08:51:03;;;;;;;;;;;33.20;42.50;;;25.91;44.53;95617.31;5033960;28;19909;-48
2023/05/06 08:53:31;;;;;;;;;;;33.30;42.00;;;25.85;43.88;95616.03;5032375;28;19924;-48
2023/05/06 08:56:05;;;;;;;;;;;33.50;41.70;;;25.98;42.95;95616.66;5032785;28;20401;-46
2023/05/06 08:58:37;;;;;;;;;;;33.70;41.50;;;26.01;43.21;95607.75;5033692;28;20343;-46
2023/05/06 09:01:04;;;;;;;;;;;33.80;41.20;;;26.51;42.61;95609.41;5032685;23;19996;-47
2023/05/06 09:03:30;;;;;;;;;;;34.00;41.60;;;26.82;41.41;95602.03;5012200;28;19917;-48
2023/05/06 09:05:57;;;;;;;;;;;34.30;40.60;;;27.14;39.91;95609.91;5011797;28;19996;-49
2023/05/06 09:08:23;;;;;;;;;;;34.50;40.30;;;27.21;39.17;95610.03;5010511;28;19917;-48
2023/05/06 09:10:49;;;;;;;;;;;34.70;39.90;;;27.06;40.94;95605.50;5009936;28;19913;-49
2023/05/06 09:13:18;;;;;;;;;;;34.80;39.50;;;27.07;39.25;95604.31;5009825;28;20375;-52
2023/05/06 09:15:48;;;;;;;;;;;34.90;39.20;;;26.67;40.84;95605.72;5008714;28;19945;-48
2023/05/06 09:18:16;;;;;;;;;;;34.90;38.80;;;26.89;40.90;95604.06;5009077;28;19913;-49
2023/05/06 09:20:46;;;;;;;;;;;35.00;38.70;;;26.88;40.32;95607.97;5007581;28;19916;-48
2023/05/06 09:23:15;;;;;;;;;;;34.80;38.80;;;26.48;39.90;95612.88;5007343;28;19959;-47
2023/05/06 09:25:43;;;;;;;;;;;34.60;38.60;;;26.53;40.88;95609.81;5008897;28;19914;-48
2023/05/06 09:28:11;;;;;;;;;;;34.50;38.40;;;26.97;40.45;95595.63;5000838;28;19909;-47
2023/05/06 09:30:40;;;;;;;;;;;34.60;38.50;;;27.17;40.65;95599.03;5007894;28;19955;-48
2023/05/06 09:33:07;;;;;;;;;;;34.60;38.30;;;27.48;40.27;95596.28;5004134;28;19921;-49
2023/05/06 09:35:42;;;;;;;;;;;34.90;38.10;;;27.49;39.69;95603.34;5001504;28;19909;-45
2023/05/06 09:38:08;;;;;;;;;;;35.20;38.60;;;27.59;38.69;95597.19;5000410;28;20694;-45
2023/05/06 09:40:36;;;;;;;;;;;35.20;37.80;;;27.51;40.14;95599.03;5006777;28;20407;-47
2023/05/06 09:43:03;;;;;;;;;;;35.10;37.70;;;27.18;39.24;95586.94;5010661;28;20291;-48
2023/05/06 09:45:29;;;;;;;;;;;34.90;37.40;;;27.10;38.59;95582.50;4994720;28;19920;-49
2023/05/06 09:47:56;;;;;;;;;;;35.00;37.20;;;27.33;38.92;95587.91;5003831;28;19915;-48
2023/05/06 09:50:24;;;;;;;;;;;35.20;37.00;;;27.82;38.55;95584.16;4999736;28;19909;-47
2023/05/06 09:52:50;;;;;;;;;;;35.30;36.80;;;27.72;37.78;95582.09;5000396;28;20285;-49
2023/05/06 09:55:21;;;;;;;;;;;35.50;36.60;;;27.65;39.04;95577.31;4998826;28;20286;-47
2023/05/06 09:57:48;;;;;;;;;;;35.40;36.60;;;27.93;37.28;95575.28;4991456;28;19909;-46
2023/05/06 10:00:16;;;;;;;;;;;35.60;36.20;;;27.95;37.58;95572.94;5005024;28;19917;-46
2023/05/06 10:02:44;;;;;;;;;;;35.70;36.10;;;27.81;38.26;95579.06;5032865;28;19913;-45
2023/05/06 10:05:11;;;;;;;;;;;35.70;35.90;;;27.75;36.74;95577.81;5028953;28;19917;-43
2023/05/06 10:07:41;;;;;;;;;;;35.70;35.80;;;27.63;37.29;95568.69;5012296;28;19909;-44
2023/05/06 10:10:10;;;;;;;;;;;35.60;35.50;;;27.44;37.21;95566.16;5008104;28;19913;-43
2023/05/06 10:12:36;;;;;;;;;;;35.40;35.40;;;27.38;38.19;95559.44;5015398;28;19917;-46
2023/05/06 10:15:03;;;;;;;;;;;35.30;35.40;;;27.56;37.20;95554.94;5019849;28;19916;-45
2023/05/06 10:17:31;;;;;;;;;;;35.20;35.40;;;27.72;36.64;95557.47;5011687;28;20356;-45
2023/05/06 10:20:00;;;;;;;;;;;35.50;35.20;;;27.76;36.25;95555.53;5012170;28;19909;-44
2023/05/06 10:22:29;;;;;;;;;;;35.60;34.90;;;27.81;37.70;95548.97;5002814;28;19916;-45
2023/05/06 10:25:36;;;;;;;;;;;35.80;34.70;;;27.99;36.22;95541.72;5010529;28;19909;-44
2023/05/06 10:28:09;;;;;;;;;;;36.00;34.40;;;27.87;35.72;95544.72;5011679;28;20065;-45
2023/05/06 10:30:38;;;;;;;;;;;35.90;34.30;;;27.47;37.17;95540.00;5011588;28;19909;-45
2023/05/06 10:33:10;;;;;;;;;;;35.70;34.40;;;27.85;37.14;95536.88;5012754;28;20029;-46
2023/05/06 10:36:03;;;;;;;;;;;35.70;34.30;;;28.06;37.84;95530.81;5012080;28;19913;-47
2023/05/06 10:38:38;;;;;;;;;;;35.60;34.50;;;27.94;37.78;95531.09;5012649;28;19909;-46
2023/05/06 10:41:08;;;;;;;;;;;35.60;34.40;;;28.19;36.68;95534.06;5009683;28;20346;-46
2023/05/06 10:43:42;;;;;;;;;;;36.00;34.10;;;28.27;36.62;95524.72;5012399;28;19913;-48
2023/05/06 10:46:13;;;;;;;;;;;36.30;34.30;;;28.24;36.40;95525.50;4991912;28;19916;-50
2023/05/06 10:49:07;;;;;;;;;;;36.50;33.50;;;28.52;35.97;95516.72;5007779;28;19944;-46
2023/05/06 10:51:40;;;;;;;;;;;36.80;33.90;;;28.45;36.62;95518.59;5003710;28;19910;-46
2023/05/06 10:54:18;;;;;;;;;;;37.00;33.10;;;27.86;36.90;95522.06;5005226;28;20338;-45
2023/05/06 10:56:47;;;;;;;;;;;37.10;32.90;;;28.45;35.62;95515.88;5007929;28;19909;-44
2023/05/06 10:59:13;;;;;;;;;;;37.10;32.80;;;28.78;35.96;95520.38;4982296;28;19909;-43
2023/05/06 11:01:43;;;;;;;;;;;37.30;32.60;;;29.09;34.84;95504.50;5000842;28;19923;-44
2023/05/06 11:04:13;;;;;;;;;;;37.40;32.60;;;28.88;34.81;95510.63;5011170;28;19913;-43
2023/05/06 11:06:46;;;;;;;;;;;37.40;32.30;;;28.80;35.60;95507.88;4999332;28;19909;-43
2023/05/06 11:09:21;;;;;;;;;;;37.30;32.20;;;28.94;35.81;95507.13;4991819;28;19971;-43
2023/05/06 11:12:05;;;;;;;;;;;37.30;32.20;;;29.23;35.32;95502.56;5004853;28;19994;-48
2023/05/06 11:14:37;;;;;;;;;;;37.50;32.00;;;28.44;35.33;95509.59;5002832;28;19909;-43